Toyama Airport, Japan

11:33 PM JST on May 23, 2015 (GMT +0900)
JR9MAR-WX | | Change Station
CLOSE
Current Station
Personal Weather Station
Location: TONAMI, TOYAMA
Elevation: 325 ft
Nearby Weather Stations

Elev 325 ft 36.57 °N, 136.98 °E | Updated 24 seconds ago

Mostly Cloudy
Mostly Cloudy
67.5 °F
Feels Like 67.5 °F
N
1.6
Wind Variable Wind from South
Gusts 5.4 mph

Today
High -- | Low -- °F
--% Chance of Precip.
Yesterday
High -- | Low -- °F
Precip. -- in
4:38 AM 6:57 PM
Waxing Crescent, 30% visible
Pressure 29.83 in
Visibility 6.2 miles
Clouds Few 16000 ft
Mostly Cloudy 18000 ft
Dew Point 54 °F
Humidity 62%
Rainfall in
Snow Depth Not available.
UV 0 out of 12
Pollen Not available.
Air Quality Not available.
Flu Activity Not available.
METAR RJNK 231400Z 12003KT 9999 FEW160 BKN180 BKN/// 19/12 Q1010

More Conditions Fewer Conditions

Pressure 29.83 in
Visibility 6.2 miles
Clouds Few 16000 ft
Mostly Cloudy 18000 ft
Dew Point 54 °F
Humidity 62%
Rainfall in
Snow Depth Not available.
UV 0 out of 12
Pollen Not available.
Air Quality Not available.
Flu Activity Not available.
METAR RJNK 231400Z 12003KT 9999 FEW160 BKN180 BKN/// 19/12 Q1010

More Conditions Fewer Conditions

10-Day Weather Forecast

Almanac

Astronomy

May. 23, 2015 Rise Set
Actual Time
Civil Twilight
Nautical Twilight
Astronomical Twilight
Moon
Length of Visible Light
Length of Day
Tomorrow will be .
, % of the Moon is Illuminated

Today's Extremes

Country Highs Country Lows

Community

WunderPhotos

Upload Photos

1,823,477 photos uploaded!

WunderBlogs® & News

Nearby

Air Quality

  Air Quality AQ Index Pollutant
Not available.

Snow Depth

Station Depth Elevation

Earthquake Activity

City Distance Mag. Time & Date
Minimum magnitude displayed is 2.5.

Coastal Water Temperatures

Place Temperature

Stations

Nearby Weather Stations

Station Location Temp. Windchill Dew Point Humidity Wind Precip. Elev Updated Type